Time;durP1;ratioP1;P1;durP2;ratioP2;P2;SDS_P1;SDS_P2;PMS_P1;PMS_P2;Temp;Humidity;BMP_temperature;BMP_pressure;BME280_temperature;BME280_humidity;BME280_pressure;Samples;Min_cycle;Max_cycle;Signal;HPM_P1;HPM_P2
2022/04/03 00:00:40;;;;;;;;;;;18.80;25.90;;;;;;5103396;28;19920;-53
2022/04/03 00:03:08;;;;;;;;;;;18.80;25.90;;;;;;5129988;27;20361;-52
2022/04/03 00:05:39;;;;;;;;;;;18.80;25.90;;;;;;5099499;28;19993;-46
2022/04/03 00:08:06;;;;;;;;;;;18.80;25.90;;;;;;5103815;28;20019;-50
2022/04/03 00:10:33;;;;;;;;;;;18.80;25.90;;;;;;5102521;28;19961;-47
2022/04/03 00:13:01;;;;;;;;;;;18.80;25.90;;;;;;5105622;28;19954;-54
2022/04/03 00:15:27;;;;;;;;;;;18.80;25.90;;;;;;5101275;28;20018;-51
2022/04/03 00:17:57;;;;;;;;;;;18.80;26.00;;;;;;5102721;28;19920;-46
2022/04/03 00:20:24;;;;;;;;;;;18.80;26.00;;;;;;5098996;28;19931;-56
2022/04/03 00:22:52;;;;;;;;;;;18.70;25.90;;;;;;5120407;27;19924;-58
2022/04/03 00:25:19;;;;;;;;;;;18.70;26.00;;;;;;5099300;28;19920;-50
2022/04/03 00:27:46;;;;;;;;;;;18.70;26.00;;;;;;5106798;28;19923;-50
2022/04/03 00:30:13;;;;;;;;;;;18.70;26.00;;;;;;5104175;28;20260;-51
2022/04/03 00:32:40;;;;;;;;;;;18.70;26.00;;;;;;5096171;28;20010;-52
2022/04/03 00:35:07;;;;;;;;;;;18.70;26.00;;;;;;5105235;28;19920;-54
2022/04/03 00:37:34;;;;;;;;;;;18.70;26.00;;;;;;5105510;28;20241;-49
2022/04/03 00:40:02;;;;;;;;;;;18.70;26.00;;;;;;5093921;28;19919;-49
2022/04/03 00:42:29;;;;;;;;;;;18.70;26.00;;;;;;5105862;28;19923;-49
2022/04/03 00:44:56;;;;;;;;;;;18.70;26.00;;;;;;5106303;28;19955;-47
2022/04/03 00:47:23;;;;;;;;;;;18.70;26.00;;;;;;5107227;28;19927;-51
2022/04/03 00:49:51;;;;;;;;;;;18.70;26.00;;;;;;5131340;27;19924;-54
2022/04/03 00:52:17;;;;;;;;;;;18.70;26.00;;;;;;5087558;28;20002;-49
2022/04/03 00:54:46;;;;;;;;;;;18.70;26.00;;;;;;5128247;27;19920;-47
2022/04/03 00:57:15;;;;;;;;;;;18.70;26.00;;;;;;5106528;27;19924;-52
2022/04/03 00:59:42;;;;;;;;;;;18.70;26.00;;;;;;5087615;28;19926;-51
2022/04/03 01:02:08;;;;;;;;;;;18.70;26.00;;;;;;5100705;28;20357;-48
2022/04/03 01:04:37;;;;;;;;;;;18.70;26.00;;;;;;5102975;27;19923;-50
2022/04/03 01:07:04;;;;;;;;;;;18.70;26.00;;;;;;5103302;28;20013;-55
2022/04/03 01:09:31;;;;;;;;;;;18.60;26.00;;;;;;5141641;27;19989;-54
2022/04/03 01:11:57;;;;;;;;;;;18.60;26.00;;;;;;5089333;28;20349;-54
2022/04/03 01:14:34;;;;;;;;;;;18.60;26.00;;;;;;5094948;28;19924;-53
2022/04/03 01:17:01;;;;;;;;;;;18.60;26.00;;;;;;5106436;28;20385;-49
2022/04/03 01:19:28;;;;;;;;;;;18.60;26.00;;;;;;5087525;28;19927;-46
2022/04/03 01:21:55;;;;;;;;;;;18.60;26.00;;;;;;5104776;28;19961;-46
2022/04/03 01:24:23;;;;;;;;;;;18.60;26.00;;;;;;5097588;28;19938;-48
2022/04/03 01:26:51;;;;;;;;;;;18.60;25.90;;;;;;5105407;28;19920;-58
2022/04/03 01:29:18;;;;;;;;;;;18.60;25.90;;;;;;5086938;28;19964;-48
2022/04/03 01:31:48;;;;;;;;;;;18.60;25.90;;;;;;5093927;28;20018;-45
2022/04/03 01:34:15;;;;;;;;;;;18.60;25.90;;;;;;5092813;28;19920;-46
2022/04/03 01:36:42;;;;;;;;;;;18.60;25.90;;;;;;5104200;28;19927;-46
2022/04/03 01:39:11;;;;;;;;;;;18.60;25.90;;;;;;5124929;27;19973;-46
2022/04/03 01:41:38;;;;;;;;;;;18.60;25.90;;;;;;5090622;28;20038;-47
2022/04/03 01:44:07;;;;;;;;;;;18.60;25.90;;;;;;5119504;27;19928;-46
2022/04/03 01:46:34;;;;;;;;;;;18.60;26.20;;;;;;5092285;28;20384;-48
2022/04/03 01:49:00;;;;;;;;;;;18.60;26.00;;;;;;5101954;28;20250;-47
2022/04/03 01:51:27;;;;;;;;;;;18.60;26.00;;;;;;5106849;28;20033;-48
2022/04/03 01:53:54;;;;;;;;;;;18.60;26.00;;;;;;5084542;28;19930;-53
2022/04/03 01:56:20;;;;;;;;;;;18.60;26.00;;;;;;5122341;27;19932;-49
2022/04/03 01:58:47;;;;;;;;;;;18.60;26.00;;;;;;5103977;28;20015;-45
2022/04/03 02:01:15;;;;;;;;;;;18.60;26.00;;;;;;5104073;28;20773;-48
2022/04/03 02:03:42;;;;;;;;;;;18.60;25.90;;;;;;5105677;28;19928;-51
2022/04/03 02:06:09;;;;;;;;;;;18.60;25.90;;;;;;5099900;28;19974;-51
2022/04/03 02:08:36;;;;;;;;;;;18.60;25.90;;;;;;5105899;28;19928;-48
2022/04/03 02:11:05;;;;;;;;;;;18.50;25.90;;;;;;5101738;28;20349;-47
2022/04/03 02:13:32;;;;;;;;;;;18.50;25.90;;;;;;5089300;28;19943;-46
2022/04/03 02:15:59;;;;;;;;;;;18.50;25.90;;;;;;5097454;28;20395;-50
2022/04/03 02:18:27;;;;;;;;;;;18.50;25.90;;;;;;5104570;28;20139;-46
2022/04/03 02:20:54;;;;;;;;;;;18.50;25.90;;;;;;5099684;28;19967;-55
2022/04/03 02:23:21;;;;;;;;;;;18.40;25.80;;;;;;5090075;28;20017;-52
2022/04/03 02:25:49;;;;;;;;;;;18.50;25.90;;;;;;5089136;28;19998;-54
2022/04/03 02:28:16;;;;;;;;;;;18.40;25.80;;;;;;5118752;27;19923;-53
2022/04/03 02:30:44;;;;;;;;;;;18.40;25.80;;;;;;5101942;28;19926;-55
2022/04/03 02:33:11;;;;;;;;;;;18.40;25.90;;;;;;5096555;28;19920;-50
2022/04/03 02:35:39;;;;;;;;;;;18.40;25.90;;;;;;5094351;28;20193;-54
2022/04/03 02:38:07;;;;;;;;;;;18.40;25.90;;;;;;5104316;28;19927;-48
2022/04/03 02:40:34;;;;;;;;;;;18.40;25.80;;;;;;5093991;28;19924;-45
2022/04/03 02:43:02;;;;;;;;;;;18.40;25.90;;;;;;5102588;28;20271;-53
2022/04/03 02:45:28;;;;;;;;;;;18.40;25.80;;;;;;5083878;28;20341;-48
2022/04/03 02:47:56;;;;;;;;;;;18.40;25.80;;;;;;5120600;27;19923;-54
2022/04/03 02:50:22;;;;;;;;;;;18.40;25.80;;;;;;5101450;28;19994;-54
2022/04/03 02:52:51;;;;;;;;;;;18.40;25.80;;;;;;5090420;28;19919;-51
2022/04/03 02:55:18;;;;;;;;;;;18.40;25.90;;;;;;5118278;27;19999;-56
2022/04/03 02:57:45;;;;;;;;;;;18.40;25.90;;;;;;5094010;28;20454;-46
2022/04/03 03:00:14;;;;;;;;;;;18.40;26.30;;;;;;5120780;27;19927;-56
2022/04/03 03:02:41;;;;;;;;;;;18.40;25.90;;;;;;5101542;28;19943;-56
2022/04/03 03:05:08;;;;;;;;;;;18.40;25.90;;;;;;5093384;28;19927;-53
2022/04/03 03:07:38;;;;;;;;;;;18.40;25.90;;;;;;5098355;28;19919;-50
2022/04/03 03:10:07;;;;;;;;;;;18.40;25.90;;;;;;5087574;28;20065;-46
2022/04/03 03:12:34;;;;;;;;;;;18.40;25.90;;;;;;5093225;28;20011;-51
2022/04/03 03:15:01;;;;;;;;;;;18.40;25.90;;;;;;5085651;28;19927;-49
2022/04/03 03:17:28;;;;;;;;;;;18.40;25.90;;;;;;5101401;28;19927;-51
2022/04/03 03:19:55;;;;;;;;;;;18.40;26.00;;;;;;5087246;28;20281;-55
2022/04/03 03:22:22;;;;;;;;;;;18.40;26.00;;;;;;5088418;28;19920;-48
2022/04/03 03:24:48;;;;;;;;;;;18.40;26.00;;;;;;5116882;27;19924;-57
2022/04/03 03:27:16;;;;;;;;;;;18.40;26.00;;;;;;5085873;28;19973;-52
2022/04/03 03:29:43;;;;;;;;;;;18.40;26.10;;;;;;5100240;28;20014;-48
2022/04/03 03:32:10;;;;;;;;;;;18.40;26.00;;;;;;5101204;28;19965;-50
2022/04/03 03:34:36;;;;;;;;;;;18.40;26.10;;;;;;5100806;28;19920;-49
2022/04/03 03:37:03;;;;;;;;;;;18.40;26.10;;;;;;5129889;27;20365;-49
2022/04/03 03:39:32;;;;;;;;;;;18.40;26.10;;;;;;5092154;28;19924;-56
2022/04/03 03:42:02;;;;;;;;;;;18.40;26.10;;;;;;5096222;28;19920;-56
2022/04/03 03:44:30;;;;;;;;;;;18.40;26.10;;;;;;5092582;28;19928;-46
2022/04/03 03:46:57;;;;;;;;;;;18.40;26.10;;;;;;5094285;28;19923;-51
2022/04/03 03:49:26;;;;;;;;;;;18.40;26.10;;;;;;5097695;28;19951;-54
2022/04/03 03:51:52;;;;;;;;;;;18.40;26.10;;;;;;5105003;28;19959;-53
2022/04/03 03:54:19;;;;;;;;;;;18.40;26.10;;;;;;5125238;27;20432;-54
2022/04/03 03:56:46;;;;;;;;;;;18.40;26.20;;;;;;5090775;28;19924;-56
2022/04/03 03:59:14;;;;;;;;;;;18.40;26.20;;;;;;5091128;28;19926;-51
2022/04/03 04:01:42;;;;;;;;;;;18.40;26.20;;;;;;5104856;28;19934;-49
2022/04/03 04:04:09;;;;;;;;;;;18.40;26.20;;;;;;5106618;28;20403;-48
2022/04/03 04:06:38;;;;;;;;;;;18.40;26.20;;;;;;5098446;28;19923;-46
2022/04/03 04:09:05;;;;;;;;;;;18.40;26.20;;;;;;5089263;28;20005;-55
2022/04/03 04:11:32;;;;;;;;;;;18.40;26.20;;;;;;5091267;28;19920;-46
2022/04/03 04:13:58;;;;;;;;;;;18.30;26.20;;;;;;5123913;27;19924;-48
2022/04/03 04:16:25;;;;;;;;;;;18.30;26.20;;;;;;5093682;28;19963;-47
2022/04/03 04:18:53;;;;;;;;;;;18.30;26.20;;;;;;5103733;27;19927;-53
2022/04/03 04:21:20;;;;;;;;;;;18.30;26.20;;;;;;5088817;28;20059;-46
2022/04/03 04:23:47;;;;;;;;;;;18.30;26.20;;;;;;5104861;28;19927;-49
2022/04/03 04:26:15;;;;;;;;;;;18.30;26.20;;;;;;5091749;28;19932;-52
2022/04/03 04:28:42;;;;;;;;;;;18.30;26.20;;;;;;5123494;27;19955;-56
2022/04/03 04:31:09;;;;;;;;;;;18.30;26.30;;;;;;5101661;28;20115;-48
2022/04/03 04:33:35;;;;;;;;;;;18.30;26.20;;;;;;5092232;28;19920;-57
2022/04/03 04:36:07;;;;;;;;;;;18.30;26.20;;;;;;5130439;27;19955;-48
2022/04/03 04:38:34;;;;;;;;;;;18.30;26.30;;;;;;5088078;28;19920;-47
2022/04/03 04:41:03;;;;;;;;;;;18.30;26.30;;;;;;5128114;27;19919;-51
2022/04/03 04:43:32;;;;;;;;;;;18.30;26.30;;;;;;5090915;28;20357;-51
2022/04/03 04:45:59;;;;;;;;;;;18.30;26.30;;;;;;5088473;28;19920;-53
2022/04/03 04:48:26;;;;;;;;;;;18.30;26.30;;;;;;5084820;28;19971;-53
2022/04/03 04:50:53;;;;;;;;;;;18.30;26.30;;;;;;5119914;27;19924;-51
2022/04/03 04:53:21;;;;;;;;;;;18.30;26.30;;;;;;5088365;28;19981;-56
2022/04/03 04:55:48;;;;;;;;;;;18.30;26.30;;;;;;5092030;28;19934;-51
2022/04/03 04:58:14;;;;;;;;;;;18.30;26.30;;;;;;5099497;28;20322;-50
2022/04/03 05:00:41;;;;;;;;;;;18.30;26.40;;;;;;5098247;28;19920;-58
2022/04/03 05:03:08;;;;;;;;;;;18.30;26.30;;;;;;5092843;28;19927;-46
2022/04/03 05:05:35;;;;;;;;;;;18.30;26.40;;;;;;5095224;28;19924;-56
2022/04/03 05:08:01;;;;;;;;;;;18.30;26.40;;;;;;5134074;27;20380;-47
2022/04/03 05:10:30;;;;;;;;;;;18.30;26.40;;;;;;5104831;28;19942;-53
2022/04/03 05:12:57;;;;;;;;;;;18.30;26.40;;;;;;5113229;27;19939;-47
2022/04/03 05:15:23;;;;;;;;;;;18.30;26.40;;;;;;5103268;28;19927;-48
2022/04/03 05:17:50;;;;;;;;;;;18.30;26.40;;;;;;5087213;28;20334;-57
2022/04/03 05:20:17;;;;;;;;;;;18.30;26.40;;;;;;5085653;28;19924;-50
2022/04/03 05:22:44;;;;;;;;;;;18.30;26.40;;;;;;5097562;28;19924;-54
2022/04/03 05:25:11;;;;;;;;;;;18.30;26.40;;;;;;5119573;27;20254;-46
2022/04/03 05:27:39;;;;;;;;;;;18.30;26.40;;;;;;5105525;28;19985;-54
2022/04/03 05:30:06;;;;;;;;;;;18.30;26.40;;;;;;5106671;28;19926;-59
2022/04/03 05:32:35;;;;;;;;;;;18.30;26.40;;;;;;5101604;28;19963;-57
2022/04/03 05:35:02;;;;;;;;;;;18.30;26.40;;;;;;5104152;28;19984;-48
2022/04/03 05:37:29;;;;;;;;;;;18.30;26.40;;;;;;5119012;27;19930;-47
2022/04/03 05:39:55;;;;;;;;;;;18.30;26.40;;;;;;5089238;28;20021;-49
2022/04/03 05:42:22;;;;;;;;;;;18.30;26.40;;;;;;5088106;28;20328;-58
2022/04/03 05:44:50;;;;;;;;;;;18.20;26.40;;;;;;5084915;28;20023;-50
2022/04/03 05:47:17;;;;;;;;;;;18.30;26.40;;;;;;5128027;27;19990;-51
2022/04/03 05:49:44;;;;;;;;;;;18.30;26.50;;;;;;5085768;28;20331;-48
2022/04/03 05:52:11;;;;;;;;;;;18.20;26.40;;;;;;5091859;28;19926;-48
2022/04/03 05:54:37;;;;;;;;;;;18.20;26.40;;;;;;5097973;28;19962;-47
2022/04/03 05:57:04;;;;;;;;;;;18.20;26.40;;;;;;5104931;28;19926;-49
2022/04/03 05:59:32;;;;;;;;;;;18.20;26.40;;;;;;5088738;28;19993;-53
2022/04/03 06:02:00;;;;;;;;;;;18.20;26.50;;;;;;5088575;28;20027;-47
2022/04/03 06:04:27;;;;;;;;;;;18.20;26.50;;;;;;5101209;28;20014;-48
2022/04/03 06:06:55;;;;;;;;;;;18.20;26.50;;;;;;5091849;28;20356;-52
2022/04/03 06:09:22;;;;;;;;;;;18.20;26.50;;;;;;5083433;28;20027;-46
2022/04/03 06:11:48;;;;;;;;;;;18.20;26.50;;;;;;5121011;27;19930;-56
2022/04/03 06:14:15;;;;;;;;;;;18.20;26.50;;;;;;5086198;28;20313;-49
2022/04/03 06:16:42;;;;;;;;;;;18.20;26.50;;;;;;5117403;27;19963;-51
2022/04/03 06:19:11;;;;;;;;;;;18.20;26.60;;;;;;5088206;28;19960;-50
2022/04/03 06:21:38;;;;;;;;;;;18.20;26.60;;;;;;5085134;28;19920;-47
2022/04/03 06:24:05;;;;;;;;;;;18.20;26.60;;;;;;5117804;27;20364;-47
2022/04/03 06:26:32;;;;;;;;;;;18.30;26.70;;;;;;5099342;28;20018;-46
2022/04/03 06:28:59;;;;;;;;;;;18.20;26.60;;;;;;5103232;28;20017;-49
2022/04/03 06:31:26;;;;;;;;;;;18.20;26.60;;;;;;5102357;28;20170;-57
2022/04/03 06:33:52;;;;;;;;;;;18.20;26.60;;;;;;5091851;28;19963;-51
2022/04/03 06:36:21;;;;;;;;;;;18.20;26.70;;;;;;5093074;28;19932;-50
2022/04/03 06:38:48;;;;;;;;;;;18.20;26.70;;;;;;5096609;28;19923;-52
2022/04/03 06:41:14;;;;;;;;;;;18.20;26.70;;;;;;5099008;28;19926;-46
2022/04/03 06:43:41;;;;;;;;;;;18.20;26.70;;;;;;5103432;28;19932;-52
2022/04/03 06:46:08;;;;;;;;;;;18.20;26.70;;;;;;5104775;28;19919;-47
2022/04/03 06:48:35;;;;;;;;;;;18.20;26.70;;;;;;5104201;28;20160;-55
2022/04/03 06:51:02;;;;;;;;;;;18.20;26.80;;;;;;5100107;28;19924;-54
2022/04/03 06:53:30;;;;;;;;;;;18.20;26.80;;;;;;5097537;28;20315;-46
2022/04/03 06:55:58;;;;;;;;;;;18.20;26.80;;;;;;5102376;28;20023;-47
2022/04/03 06:58:25;;;;;;;;;;;18.20;26.90;;;;;;5100071;28;20319;-47
2022/04/03 07:00:54;;;;;;;;;;;18.20;26.90;;;;;;5093688;28;19924;-48
2022/04/03 07:03:21;;;;;;;;;;;18.20;26.90;;;;;;5101251;28;19955;-54
2022/04/03 07:05:49;;;;;;;;;;;18.20;26.90;;;;;;5100888;28;19924;-48
2022/04/03 07:08:16;;;;;;;;;;;18.20;26.90;;;;;;5101898;28;19931;-45
2022/04/03 07:10:44;;;;;;;;;;;18.20;27.00;;;;;;5097595;28;19931;-45
2022/04/03 07:13:12;;;;;;;;;;;18.20;27.00;;;;;;5093207;28;20365;-55
2022/04/03 07:15:38;;;;;;;;;;;18.20;27.00;;;;;;5094764;28;20002;-49
2022/04/03 07:18:05;;;;;;;;;;;18.20;27.00;;;;;;5101957;28;19924;-50
2022/04/03 07:20:32;;;;;;;;;;;18.20;27.00;;;;;;5093302;28;19924;-47
2022/04/03 07:23:01;;;;;;;;;;;18.30;27.10;;;;;;5113347;28;20243;-48
2022/04/03 07:25:28;;;;;;;;;;;18.30;27.10;;;;;;5101721;28;19926;-54
2022/04/03 07:27:56;;;;;;;;;;;18.20;27.10;;;;;;5097218;28;19977;-45
2022/04/03 07:30:23;;;;;;;;;;;18.20;27.10;;;;;;5105525;28;19919;-50
2022/04/03 07:32:49;;;;;;;;;;;18.20;27.20;;;;;;5107843;28;19924;-45
2022/04/03 07:35:16;;;;;;;;;;;18.20;27.20;;;;;;5103968;28;20480;-51
2022/04/03 07:37:43;;;;;;;;;;;18.20;27.20;;;;;;5101041;28;19973;-54
2022/04/03 07:40:11;;;;;;;;;;;18.30;27.40;;;;;;5101102;28;20275;-49
2022/04/03 07:42:39;;;;;;;;;;;18.20;27.30;;;;;;5099143;28;19931;-47
2022/04/03 07:45:07;;;;;;;;;;;18.30;27.40;;;;;;5107262;28;19967;-45
2022/04/03 07:47:34;;;;;;;;;;;18.30;27.40;;;;;;5103784;28;20017;-46
2022/04/03 07:50:06;;;;;;;;;;;18.30;27.50;;;;;;5105841;28;20369;-50
2022/04/03 07:52:33;;;;;;;;;;;18.30;27.50;;;;;;5105008;28;20306;-45
2022/04/03 07:54:59;;;;;;;;;;;18.30;27.50;;;;;;5104939;28;20003;-54
2022/04/03 07:57:26;;;;;;;;;;;18.30;27.60;;;;;;5110357;28;19931;-53
2022/04/03 07:59:53;;;;;;;;;;;18.30;27.60;;;;;;5093763;28;19924;-56
2022/04/03 08:02:21;;;;;;;;;;;18.30;27.60;;;;;;5095639;28;19920;-45
2022/04/03 08:04:48;;;;;;;;;;;18.30;27.60;;;;;;5123831;27;20373;-51
2022/04/03 08:07:17;;;;;;;;;;;18.30;27.60;;;;;;5088564;28;19920;-47
2022/04/03 08:09:44;;;;;;;;;;;18.30;27.70;;;;;;5096071;28;19959;-50
2022/04/03 08:12:14;;;;;;;;;;;18.30;27.70;;;;;;5127980;27;20365;-57
2022/04/03 08:14:41;;;;;;;;;;;18.30;27.70;;;;;;5106702;28;19923;-48
2022/04/03 08:17:08;;;;;;;;;;;18.30;27.70;;;;;;5095919;28;19927;-54
2022/04/03 08:19:36;;;;;;;;;;;18.30;27.80;;;;;;5123045;27;19924;-48
2022/04/03 08:22:03;;;;;;;;;;;18.30;27.80;;;;;;5103853;28;19920;-49
2022/04/03 08:24:29;;;;;;;;;;;18.30;27.90;;;;;;5123845;27;19920;-46
2022/04/03 08:26:56;;;;;;;;;;;18.30;27.90;;;;;;5101166;28;20281;-57
2022/04/03 08:29:23;;;;;;;;;;;18.40;27.90;;;;;;5106269;28;19926;-48
2022/04/03 08:31:50;;;;;;;;;;;18.30;27.90;;;;;;5097249;28;19923;-48
2022/04/03 08:34:19;;;;;;;;;;;18.40;28.00;;;;;;5107517;28;20022;-45
2022/04/03 08:36:47;;;;;;;;;;;18.40;28.00;;;;;;5104175;28;20320;-47
2022/04/03 08:39:16;;;;;;;;;;;18.40;28.10;;;;;;5107063;28;19923;-54
2022/04/03 08:41:43;;;;;;;;;;;18.40;28.10;;;;;;5105897;28;20254;-47
2022/04/03 08:44:10;;;;;;;;;;;18.40;28.10;;;;;;5106132;28;19963;-51
2022/04/03 08:46:36;;;;;;;;;;;18.40;28.10;;;;;;5093283;28;20011;-50
2022/04/03 08:49:03;;;;;;;;;;;18.40;28.10;;;;;;5122396;27;19963;-49
2022/04/03 08:51:30;;;;;;;;;;;18.40;28.20;;;;;;5100419;28;20258;-50
2022/04/03 08:53:58;;;;;;;;;;;18.40;28.20;;;;;;5106636;28;19920;-54
2022/04/03 08:56:24;;;;;;;;;;;18.40;28.20;;;;;;5102607;28;19927;-53
2022/04/03 08:58:51;;;;;;;;;;;18.40;28.30;;;;;;5103125;28;19924;-52
2022/04/03 09:01:18;;;;;;;;;;;18.40;28.30;;;;;;5100344;28;19919;-47
2022/04/03 09:03:45;;;;;;;;;;;18.40;28.30;;;;;;5106342;28;20260;-46
2022/04/03 09:06:13;;;;;;;;;;;18.40;28.30;;;;;;5106678;28;19945;-47
2022/04/03 09:08:39;;;;;;;;;;;18.40;28.40;;;;;;5095636;28;19924;-49
2022/04/03 09:11:07;;;;;;;;;;;18.40;28.40;;;;;;5102976;28;20027;-50
2022/04/03 09:13:34;;;;;;;;;;;18.40;28.40;;;;;;5103904;28;20018;-47
2022/04/03 09:16:04;;;;;;;;;;;18.40;28.50;;;;;;5104694;28;20438;-50
2022/04/03 09:18:47;;;;;;;;;;;18.40;28.50;;;;;;5102132;28;19954;-45
2022/04/03 09:21:17;;;;;;;;;;;18.40;28.60;;;;;;5137298;27;20018;-49
2022/04/03 09:24:02;;;;;;;;;;;18.40;28.60;;;;;;5095924;28;20381;-48
2022/04/03 09:26:30;;;;;;;;;;;18.40;28.60;;;;;;5084204;28;19920;-48
2022/04/03 09:29:07;;;;;;;;;;;18.40;28.60;;;;;;5107037;28;20006;-45
2022/04/03 09:31:33;;;;;;;;;;;18.40;28.70;;;;;;5097039;28;19924;-46
2022/04/03 09:34:01;;;;;;;;;;;18.40;28.80;;;;;;5101721;28;19920;-53
2022/04/03 09:36:29;;;;;;;;;;;18.40;28.80;;;;;;5097060;28;19928;-48
2022/04/03 09:39:08;;;;;;;;;;;18.50;29.10;;;;;;5102229;28;19927;-44
2022/04/03 09:41:38;;;;;;;;;;;18.50;29.20;;;;;;5105346;28;19943;-48
2022/04/03 09:44:15;;;;;;;;;;;18.50;29.30;;;;;;5094521;28;20389;-50
2022/04/03 09:46:44;;;;;;;;;;;18.60;29.50;;;;;;5101206;28;20010;-44
2022/04/03 09:49:24;;;;;;;;;;;18.60;29.60;;;;;;5096641;28;20048;-44
2022/04/03 09:51:50;;;;;;;;;;;18.60;29.80;;;;;;5096283;28;19928;-44
2022/04/03 09:54:18;;;;;;;;;;;18.60;29.80;;;;;;5100255;28;20028;-50
2022/04/03 09:56:46;;;;;;;;;;;18.70;30.00;;;;;;5101908;28;19923;-45
2022/04/03 09:59:13;;;;;;;;;;;18.70;30.00;;;;;;5098631;28;19972;-49
2022/04/03 10:01:40;;;;;;;;;;;18.70;30.00;;;;;;5098899;28;20288;-45
2022/04/03 10:04:07;;;;;;;;;;;18.80;30.00;;;;;;5103182;28;19919;-53
2022/04/03 10:06:34;;;;;;;;;;;18.80;30.10;;;;;;5093634;28;19955;-45
2022/04/03 10:09:01;;;;;;;;;;;18.80;30.10;;;;;;5102579;28;20022;-47
2022/04/03 10:11:28;;;;;;;;;;;18.80;30.20;;;;;;5105653;28;19930;-45
2022/04/03 10:13:56;;;;;;;;;;;18.80;30.20;;;;;;5101966;28;20058;-49
2022/04/03 10:16:23;;;;;;;;;;;18.80;30.30;;;;;;5103994;28;20024;-45
2022/04/03 10:18:50;;;;;;;;;;;18.80;30.20;;;;;;5093064;28;19920;-49
2022/04/03 10:21:17;;;;;;;;;;;18.90;30.30;;;;;;5098199;27;19928;-49
2022/04/03 10:23:44;;;;;;;;;;;18.90;30.40;;;;;;5097652;27;19932;-44
2022/04/03 10:26:11;;;;;;;;;;;18.90;30.40;;;;;;5090380;27;19919;-47
2022/04/03 10:28:39;;;;;;;;;;;18.90;30.30;;;;;;5099064;28;19924;-43
2022/04/03 10:31:07;;;;;;;;;;;18.90;30.40;;;;;;5091213;27;19932;-47
2022/04/03 10:33:37;;;;;;;;;;;18.90;30.30;;;;;;5096767;28;20026;-44
2022/04/03 10:36:05;;;;;;;;;;;18.90;30.30;;;;;;5131178;27;19920;-45
2022/04/03 10:38:35;;;;;;;;;;;18.90;30.30;;;;;;5120028;27;20619;-44
2022/04/03 10:41:02;;;;;;;;;;;18.90;30.30;;;;;;5097452;28;19994;-46
2022/04/03 10:43:29;;;;;;;;;;;19.00;30.40;;;;;;5093771;28;19928;-46
2022/04/03 10:45:56;;;;;;;;;;;19.00;30.40;;;;;;5095567;28;19923;-44
2022/04/03 10:48:28;;;;;;;;;;;19.00;30.50;;;;;;5084515;28;19985;-49
2022/04/03 10:50:58;;;;;;;;;;;19.00;30.50;;;;;;5095819;28;19931;-47
2022/04/03 10:53:26;;;;;;;;;;;19.00;30.50;;;;;;5086085;28;19923;-46
2022/04/03 10:55:54;;;;;;;;;;;19.00;30.60;;;;;;5126452;27;19934;-47
2022/04/03 10:58:21;;;;;;;;;;;19.00;30.70;;;;;;5097701;28;19927;-46
2022/04/03 11:00:49;;;;;;;;;;;19.00;30.70;;;;;;5090392;28;19924;-49
2022/04/03 11:03:37;;;;;;;;;;;19.10;30.90;;;;;;5090930;28;20012;-51
2022/04/03 11:06:22;;;;;;;;;;;19.10;30.90;;;;;;5128053;27;19938;-46
2022/04/03 11:09:04;;;;;;;;;;;19.10;31.00;;;;;;5096857;28;19924;-47
2022/04/03 11:11:41;;;;;;;;;;;19.10;31.10;;;;;;5085349;28;19924;-47
2022/04/03 11:14:11;;;;;;;;;;;19.10;31.10;;;;;;5086540;28;20294;-47
2022/04/03 11:16:50;;;;;;;;;;;19.20;31.30;;;;;;5098182;28;19920;-49
2022/04/03 11:22:24;;;;;;;;;;;19.20;32.10;;;;;;5107165;27;20265;-44
2022/04/03 11:24:51;;;;;;;;;;;19.20;31.00;;;;;;5112698;28;19920;-47
2022/04/03 11:27:18;;;;;;;;;;;19.20;31.80;;;;;;5118543;28;19969;-49
2022/04/03 11:29:46;;;;;;;;;;;19.20;32.10;;;;;;5123505;28;19947;-43
2022/04/03 11:32:13;;;;;;;;;;;19.20;32.50;;;;;;5112027;28;20287;-48
2022/04/03 11:34:40;;;;;;;;;;;19.30;32.50;;;;;;5113996;28;19965;-46
2022/04/03 11:37:08;;;;;;;;;;;19.30;33.10;;;;;;5107816;28;19959;-45
2022/04/03 11:39:37;;;;;;;;;;;19.30;32.80;;;;;;5125053;28;20023;-49
2022/04/03 11:42:05;;;;;;;;;;;19.30;32.70;;;;;;5108553;28;19965;-46
2022/04/03 11:44:32;;;;;;;;;;;19.30;32.50;;;;;;5107191;28;20259;-45
2022/04/03 11:47:00;;;;;;;;;;;19.40;32.50;;;;;;5110210;28;19977;-46
2022/04/03 11:49:29;;;;;;;;;;;19.30;32.20;;;;;;5109482;28;20283;-47
2022/04/03 11:51:56;;;;;;;;;;;19.40;32.30;;;;;;5108922;28;19959;-48
2022/04/03 11:54:25;;;;;;;;;;;19.30;32.10;;;;;;5116610;28;19970;-47
2022/04/03 11:56:56;;;;;;;;;;;19.30;32.00;;;;;;5113524;28;19919;-47
2022/04/03 11:59:23;;;;;;;;;;;19.30;32.00;;;;;;5127141;28;20284;-47
2022/04/03 12:01:50;;;;;;;;;;;19.30;31.90;;;;;;5129707;28;19919;-46
2022/04/03 12:04:17;;;;;;;;;;;19.30;31.90;;;;;;5129089;28;20304;-45
2022/04/03 12:06:45;;;;;;;;;;;19.30;31.90;;;;;;5127866;28;19968;-49
2022/04/03 12:09:12;;;;;;;;;;;19.30;32.00;;;;;;5129513;28;19920;-52
2022/04/03 12:11:39;;;;;;;;;;;19.40;34.90;;;;;;5128964;28;20028;-50
2022/04/03 12:14:08;;;;;;;;;;;19.40;34.80;;;;;;5126696;28;19927;-53
2022/04/03 12:16:36;;;;;;;;;;;20.80;33.50;;;;;;5105602;28;19984;-48
2022/04/03 12:19:04;;;;;;;;;;;21.10;33.60;;;;;;5111020;28;20357;-45
2022/04/03 12:21:37;;;;;;;;;;;22.40;32.50;;;;;;5126366;27;19942;-48
2022/04/03 12:24:04;;;;;;;;;;;24.10;30.80;;;;;;5107850;28;19973;-46
2022/04/03 12:26:31;;;;;;;;;;;25.70;29.20;;;;;;5107943;28;20000;-53
2022/04/03 12:28:58;;;;;;;;;;;26.90;28.10;;;;;;5110548;28;20400;-47
2022/04/03 12:31:30;;;;;;;;;;;28.10;27.00;;;;;;5109657;28;19958;-44
2022/04/03 12:34:06;;;;;;;;;;;29.00;26.10;;;;;;5097709;28;20257;-49
2022/04/03 12:36:38;;;;;;;;;;;29.90;25.30;;;;;;5104192;28;19923;-45
2022/04/03 12:39:05;;;;;;;;;;;30.70;24.60;;;;;;5095907;28;19928;-45
2022/04/03 12:41:32;;;;;;;;;;;31.30;24.00;;;;;;5104275;28;19959;-45
2022/04/03 12:44:00;;;;;;;;;;;31.80;23.40;;;;;;5096594;28;19927;-46
2022/04/03 12:46:37;;;;;;;;;;;32.30;23.10;;;;;;5108422;28;19970;-46
2022/04/03 12:49:04;;;;;;;;;;;32.60;22.60;;;;;;5114796;28;19989;-46
2022/04/03 12:51:31;;;;;;;;;;;33.00;22.30;;;;;;5117012;28;19920;-48
2022/04/03 12:53:59;;;;;;;;;;;33.10;22.80;;;;;;5114929;28;19920;-47
2022/04/03 12:58:24;;;;;;;;;;;32.70;22.70;;;;;;5113585;28;19926;-46
2022/04/03 12:59:19;;;;;;;;;;;32.00;22.70;;;;;;5115318;28;19995;-44
2022/04/03 13:01:51;;;;;;;;;;;31.30;22.80;;;;;;5098969;28;20016;-45
2022/04/03 13:04:28;;;;;;;;;;;30.60;23.20;;;;;;5106746;28;20262;-47
2022/04/03 13:06:55;;;;;;;;;;;30.00;23.30;;;;;;5099229;28;19938;-47
2022/04/03 13:09:22;;;;;;;;;;;29.40;23.60;;;;;;5115840;28;19971;-47
2022/04/03 13:11:49;;;;;;;;;;;28.80;24.00;;;;;;5115044;28;20329;-48
2022/04/03 13:14:17;;;;;;;;;;;28.30;24.30;;;;;;5115035;28;20368;-46
2022/04/03 13:16:44;;;;;;;;;;;27.90;24.70;;;;;;5114568;28;19924;-46
2022/04/03 13:19:12;;;;;;;;;;;27.50;25.00;;;;;;5112280;28;19966;-47
2022/04/03 13:21:40;;;;;;;;;;;27.20;25.60;;;;;;5111288;28;20011;-56
2022/04/03 13:24:08;;;;;;;;;;;27.40;25.80;;;;;;5101220;28;19973;-45
2022/04/03 13:26:35;;;;;;;;;;;27.50;25.50;;;;;;5100862;28;19958;-47
2022/04/03 13:29:02;;;;;;;;;;;27.30;25.50;;;;;;5100495;28;19924;-45
2022/04/03 13:31:30;;;;;;;;;;;27.10;25.50;;;;;;5095730;28;20235;-45
2022/04/03 13:33:58;;;;;;;;;;;26.80;25.60;;;;;;5094856;28;19927;-48
2022/04/03 13:36:26;;;;;;;;;;;26.50;25.90;;;;;;5093544;28;19962;-46
2022/04/03 13:38:55;;;;;;;;;;;26.20;26.10;;;;;;5092442;28;19920;-50
2022/04/03 13:41:21;;;;;;;;;;;25.80;26.40;;;;;;5096472;28;19973;-47
2022/04/03 13:43:48;;;;;;;;;;;25.60;26.80;;;;;;5102910;28;19959;-50
2022/04/03 13:46:15;;;;;;;;;;;25.30;27.10;;;;;;5107470;28;19920;-47
2022/04/03 13:48:42;;;;;;;;;;;24.90;27.30;;;;;;5107739;28;20284;-47
2022/04/03 13:51:09;;;;;;;;;;;24.70;27.50;;;;;;5131227;27;19920;-45
2022/04/03 13:53:38;;;;;;;;;;;24.40;27.70;;;;;;5098581;28;19926;-55
2022/04/03 13:56:05;;;;;;;;;;;24.10;27.90;;;;;;5116061;28;19919;-48
2022/04/03 13:58:33;;;;;;;;;;;23.90;28.10;;;;;;5115287;28;19930;-52
2022/04/03 14:01:01;;;;;;;;;;;23.70;28.30;;;;;;5115957;28;20045;-50
2022/04/03 14:03:28;;;;;;;;;;;23.50;28.40;;;;;;5098813;28;19920;-50
2022/04/03 14:05:55;;;;;;;;;;;23.30;28.60;;;;;;5094117;28;19920;-45
2022/04/03 14:08:22;;;;;;;;;;;23.10;28.80;;;;;;5098971;28;20369;-47
2022/04/03 14:10:50;;;;;;;;;;;23.00;28.90;;;;;;5103271;28;19927;-50
2022/04/03 14:13:19;;;;;;;;;;;22.80;29.10;;;;;;5095941;28;19947;-48
2022/04/03 14:15:46;;;;;;;;;;;22.60;29.10;;;;;;5105308;28;19919;-46
2022/04/03 14:18:15;;;;;;;;;;;22.50;29.30;;;;;;5106348;28;19920;-50
2022/04/03 14:20:42;;;;;;;;;;;22.40;29.40;;;;;;5092318;28;19962;-48
2022/04/03 14:23:09;;;;;;;;;;;22.30;29.60;;;;;;5092375;28;20002;-46